Parsival — V2MS — position and weather

sailwx.info

Track history (hours):
 
Tides and Currents Weather Stations Pressure Air Temp Water Temp Dewpoint Dewpoint Depression Visibility Wind Speed Wind Dir Waves Ship Positions

Parsival

Last reported at 2014-Oct-29 12:30 UTC. Time now 2014-Nov-01 07:03 UTC.
Position N 38°36' W 009°49'.

; draft 5 m.

Type: Cargo ship. MMSI: 304010881.

Date/timePositionNaut miles runAvg speedWind from/ knotsBaromVisibWave heightAir tempDewpointWater temp
2014-Oct-29 12:30N 38°36' W 009°49'11 8.1
2014-Oct-29 11:11N 38°26' W 009°46'5 8.2
2014-Oct-29 10:32N 38°20' W 009°44'17 8.4
2014-Oct-29 08:33N 38°04' W 009°39'27 8.6
2014-Oct-29 05:28N 37°38' W 009°31'218 7.5
2014-Oct-28 00:26N 35°59' W 005°28'7 8.1
2014-Oct-27 23:33N 35°56' W 005°20'2 2.1
2014-Oct-27 22:31N 35°54' W 005°19'0 0.0
2014-Oct-27 21:31N 35°54' W 005°19'0 0.0
2014-Oct-27 20:33N 35°54' W 005°19'5 4.5
2014-Oct-27 19:33N 35°57' W 005°14'176 8.3
2014-Oct-26 22:11N 36°31' W 001°40'64 8.4
2014-Oct-26 14:34N 36°42' W 000°22'26 8.5
2014-Oct-26 11:32N 36°48' E 000°09'9 9.4
2014-Oct-26 10:32N 36°50' E 000°21'118 8.4
2014-Oct-25 20:33N 37°09' E 002°47'11 8.9
2014-Oct-25 19:22N 37°10' E 002°60'  
2014-Oct-22 02:18N 36°53' E 013°45'8 8.0
2014-Oct-22 01:19N 36°49' E 013°54'9 7.9
2014-Oct-22 00:10N 36°46' E 014°04'5 7.5
2014-Oct-21 23:33N 36°44' E 014°10'7 7.3
2014-Oct-21 22:33N 36°42' E 014°18'7 7.2
2014-Oct-21 21:33N 36°40' E 014°27'11 7.4
2014-Oct-21 20:07N 36°37' E 014°40'  
Track history (hours):
 
Tides and Currents Weather Stations Pressure Air Temp Water Temp Dewpoint Dewpoint Depression Visibility Wind Speed Wind Dir Waves Ship Positions

Parsival

Last reported at 2014-Oct-29 12:30 UTC. Time now 2014-Nov-01 07:03 UTC.
Position N 38°36' W 009°49'.

; draft 5 m.

Type: Cargo ship. MMSI: 304010881.

Date/timePositionNaut miles runAvg speedWind from/ knotsBaromVisibWave heightAir tempDewpointWater temp
2014-Oct-29 12:30N 38°36' W 009°49'11 8.1
2014-Oct-29 11:11N 38°26' W 009°46'5 8.2
2014-Oct-29 10:32N 38°20' W 009°44'17 8.4
2014-Oct-29 08:33N 38°04' W 009°39'27 8.6
2014-Oct-29 05:28N 37°38' W 009°31'218 7.5
2014-Oct-28 00:26N 35°59' W 005°28'7 8.1
2014-Oct-27 23:33N 35°56' W 005°20'2 2.1
2014-Oct-27 22:31N 35°54' W 005°19'0 0.0
2014-Oct-27 21:31N 35°54' W 005°19'0 0.0
2014-Oct-27 20:33N 35°54' W 005°19'5 4.5
2014-Oct-27 19:33N 35°57' W 005°14'176 8.3
2014-Oct-26 22:11N 36°31' W 001°40'64 8.4
2014-Oct-26 14:34N 36°42' W 000°22'26 8.5
2014-Oct-26 11:32N 36°48' E 000°09'9 9.4
2014-Oct-26 10:32N 36°50' E 000°21'118 8.4
2014-Oct-25 20:33N 37°09' E 002°47'11 8.9
2014-Oct-25 19:22N 37°10' E 002°60'  
2014-Oct-22 02:18N 36°53' E 013°45'8 8.0
2014-Oct-22 01:19N 36°49' E 013°54'9 7.9
2014-Oct-22 00:10N 36°46' E 014°04'5 7.5
2014-Oct-21 23:33N 36°44' E 014°10'7 7.3
2014-Oct-21 22:33N 36°42' E 014°18'7 7.2
2014-Oct-21 21:33N 36°40' E 014°27'11 7.4
2014-Oct-21 20:07N 36°37' E 014°40'  

Dump ship's entire track history